createdAt,value
2023-05-22T00:01:45.507Z,101196.63
2023-05-22T00:04:13.214Z,101247.34
2023-05-22T00:06:43.857Z,101236.69
2023-05-22T00:09:10.999Z,101247.38
2023-05-22T00:11:37.678Z,101245.56
2023-05-22T00:14:04.339Z,101225.03
2023-05-22T00:16:31.337Z,101175.97
2023-05-22T00:18:58.106Z,101182.19
2023-05-22T00:21:24.917Z,101220.50
2023-05-22T00:23:51.638Z,101244.50
2023-05-22T00:26:18.239Z,101228.59
2023-05-22T00:28:44.888Z,101234.75
2023-05-22T00:31:11.564Z,101157.28
2023-05-22T00:33:38.351Z,101238.38
2023-05-22T00:36:05.601Z,101208.94
2023-05-22T00:38:34.754Z,101144.00
2023-05-22T00:41:02.624Z,101168.03
2023-05-22T00:43:29.284Z,101225.09
2023-05-22T00:45:56.385Z,101158.28
2023-05-22T00:48:24.151Z,101216.22
2023-05-22T00:50:53.772Z,101239.41
2023-05-22T00:53:21.992Z,101164.66
2023-05-22T00:55:48.777Z,101221.63
2023-05-22T00:58:18.024Z,101206.53
2023-05-22T01:00:46.581Z,101235.03
2023-05-22T01:03:14.853Z,101217.25
2023-05-22T01:05:42.184Z,101229.75
2023-05-22T01:08:09.154Z,101203.06
2023-05-22T01:10:37.629Z,101220.84
2023-05-22T01:13:50.990Z,101220.88
2023-05-22T01:16:39.758Z,101199.53
2023-05-22T01:19:47.451Z,101229.00
2023-05-22T01:22:43.253Z,101229.00
2023-05-22T01:25:12.787Z,101218.31
2023-05-22T01:27:58.153Z,101220.16
2023-05-22T01:30:48.391Z,101222.88
2023-05-22T01:33:17.177Z,101208.66
2023-05-22T01:35:51.728Z,101193.53
2023-05-22T01:38:19.989Z,101207.81
2023-05-22T01:40:46.742Z,101197.16
2023-05-22T01:43:15.762Z,101196.25
2023-05-22T01:45:42.561Z,101179.34
2023-05-22T01:48:09.525Z,101087.69
2023-05-22T01:50:36.455Z,101215.06
2023-05-22T01:53:13.494Z,101214.19
2023-05-22T01:55:55.818Z,101189.31
2023-05-22T01:58:37.714Z,101216.94
2023-05-22T02:01:10.060Z,101215.16
2023-05-22T02:03:39.411Z,101190.28
2023-05-22T02:06:08.815Z,101184.97
2023-05-22T02:08:39.487Z,101129.75
2023-05-22T02:11:07.936Z,101190.38
2023-05-22T02:13:36.025Z,101193.94
2023-05-22T02:16:04.079Z,101119.94
2023-05-22T02:18:31.485Z,101205.56
2023-05-22T02:20:59.123Z,101125.38
2023-05-22T02:23:29.476Z,101143.22
2023-05-22T02:25:56.455Z,101182.47
2023-05-22T02:28:23.190Z,101182.47
2023-05-22T02:30:50.077Z,101171.78
2023-05-22T02:33:18.537Z,101197.66
2023-05-22T02:35:45.926Z,101134.38
2023-05-22T02:38:13.673Z,101115.66
2023-05-22T02:40:40.878Z,101097.84
2023-05-22T02:43:07.970Z,101178.97
2023-05-22T02:45:34.781Z,101186.09
2023-05-22T02:48:03.552Z,101162.03
2023-05-22T02:50:32.313Z,101191.50
2023-05-22T02:52:59.107Z,101177.22
2023-05-22T02:55:25.856Z,101177.25
2023-05-22T02:57:52.646Z,101163.00
2023-05-22T03:00:19.878Z,101153.19
2023-05-22T03:02:46.802Z,101093.50
2023-05-22T03:05:17.719Z,101176.41
2023-05-22T03:07:48.142Z,101190.66
2023-05-22T03:10:15.557Z,101162.16
2023-05-22T03:12:42.327Z,101171.94
2023-05-22T03:15:10.292Z,101171.06
2023-05-22T03:17:41.761Z,101184.44
2023-05-22T03:20:10.311Z,101157.69
2023-05-22T03:22:36.983Z,101161.28
2023-05-22T03:25:06.367Z,101172.88
2023-05-22T03:27:33.007Z,101163.97
2023-05-22T03:30:01.772Z,101175.56
2023-05-22T03:32:29.445Z,101161.28
2023-05-22T03:34:58.474Z,101163.06
2023-05-22T03:37:25.268Z,101173.78
2023-05-22T03:39:51.899Z,101182.69
2023-05-22T03:42:26.213Z,101167.53
2023-05-22T03:44:53.140Z,101143.44
2023-05-22T03:47:19.924Z,101188.94
2023-05-22T03:49:46.969Z,101163.97
2023-05-22T03:52:13.691Z,101184.47
2023-05-22T03:54:40.336Z,101172.88
2023-05-22T03:57:07.327Z,101179.13
2023-05-22T03:59:35.965Z,101188.94
2023-05-22T04:02:02.628Z,101179.13
2023-05-22T04:04:29.751Z,101158.59
2023-05-22T04:06:58.191Z,101157.72
2023-05-22T04:09:31.222Z,101191.59
2023-05-22T04:11:58.550Z,101093.53
2023-05-22T04:14:26.177Z,101169.31
2023-05-22T04:16:53.139Z,101161.28
2023-05-22T04:19:19.960Z,101171.09
2023-05-22T04:21:48.177Z,101175.53
2023-05-22T04:24:16.970Z,101091.75
2023-05-22T04:26:44.733Z,101170.19
2023-05-22T04:29:14.385Z,101143.47
2023-05-22T04:31:42.104Z,101095.31
2023-05-22T04:34:14.910Z,101171.97
2023-05-22T04:36:44.982Z,101164.81
2023-05-22T04:39:11.671Z,101168.38
2023-05-22T04:41:39.032Z,101156.78
2023-05-22T04:44:06.764Z,101102.38
2023-05-22T04:46:36.286Z,101193.31
2023-05-22T04:49:03.226Z,101190.63
2023-05-22T04:51:31.161Z,101168.34
2023-05-22T04:53:58.587Z,101165.66
2023-05-22T04:56:35.408Z,101186.19
2023-05-22T04:59:05.435Z,101175.47
2023-05-22T05:01:35.033Z,101189.75
2023-05-22T05:04:02.963Z,101208.47
2023-05-22T05:06:30.836Z,101205.78
2023-05-22T05:08:58.063Z,101185.28
2023-05-22T05:11:24.795Z,101209.34
2023-05-22T05:13:51.515Z,101200.41
2023-05-22T05:16:19.048Z,101150.50
2023-05-22T05:18:46.031Z,101189.72
2023-05-22T05:21:12.852Z,101220.03
2023-05-22T05:23:39.544Z,101209.28
2023-05-22T05:26:07.220Z,101223.59
2023-05-22T05:28:33.947Z,101180.81
2023-05-22T05:31:01.705Z,101122.88
2023-05-22T05:33:52.088Z,101196.88
2023-05-22T05:36:41.552Z,101210.25
2023-05-22T05:39:08.376Z,101195.09
2023-05-22T05:41:35.486Z,101190.63
2023-05-22T05:44:07.680Z,101216.53
2023-05-22T05:46:35.732Z,101192.41
2023-05-22T05:49:10.049Z,101210.25
2023-05-22T05:51:38.573Z,101227.16
2023-05-22T05:54:06.234Z,101220.03
2023-05-22T05:56:33.025Z,101232.50
2023-05-22T05:59:00.396Z,101143.34
2023-05-22T06:01:39.833Z,101230.72
2023-05-22T06:04:15.543Z,101151.34
2023-05-22T06:06:44.960Z,101218.22
2023-05-22T06:09:14.960Z,101214.66
2023-05-22T06:12:13.908Z,101123.72
2023-05-22T06:14:43.974Z,101191.47
2023-05-22T06:17:11.104Z,101244.97
2023-05-22T06:19:39.658Z,101225.31
2023-05-22T06:22:06.821Z,101244.81
2023-05-22T06:24:34.089Z,101243.06
2023-05-22T06:27:06.589Z,101245.69
2023-05-22T06:29:33.615Z,101258.09
2023-05-22T06:32:00.603Z,101257.19
2023-05-22T06:34:29.289Z,101266.00
2023-05-22T06:36:58.086Z,101164.34
2023-05-22T06:39:29.797Z,101184.72
2023-05-22T06:42:33.127Z,101207.00
2023-05-22T06:45:26.954Z,101245.25
2023-05-22T06:48:19.827Z,101250.50
2023-05-22T06:51:21.731Z,101201.53
2023-05-22T06:53:51.814Z,101259.34
2023-05-22T06:56:24.721Z,101277.94
2023-05-22T06:59:01.390Z,101199.50
2023-05-22T07:01:46.953Z,101230.63
2023-05-22T07:04:18.250Z,101288.50
2023-05-22T07:06:52.157Z,101282.06
2023-05-22T07:09:19.862Z,101267.63
2023-05-22T07:11:48.218Z,101279.03
2023-05-22T07:14:16.085Z,101222.59
2023-05-22T07:16:43.780Z,101221.19
2023-05-22T07:19:11.931Z,101269.72
2023-05-22T07:21:39.262Z,101285.28
2023-05-22T07:24:10.116Z,101280.69
2023-05-22T07:26:46.186Z,101282.34
2023-05-22T07:29:16.513Z,101195.66
2023-05-22T07:31:46.915Z,101279.22
2023-05-22T07:34:13.602Z,101301.53
2023-05-22T07:36:40.222Z,101288.41
2023-05-22T07:39:09.501Z,101283.69
2023-05-22T07:41:39.772Z,101287.53
2023-05-22T07:44:08.837Z,101286.09
2023-05-22T07:46:38.230Z,101284.00
2023-05-22T07:49:19.459Z,101284.31
2023-05-22T07:51:47.036Z,101285.34
2023-05-22T07:54:15.358Z,101281.25
2023-05-22T07:56:45.702Z,101295.22
2023-05-22T07:59:13.160Z,101188.22
2023-05-22T08:01:41.728Z,101293.34
2023-05-22T08:04:08.747Z,101246.47
2023-05-22T08:06:35.669Z,101241.72
2023-05-22T08:09:04.452Z,101312.44
2023-05-22T08:11:31.625Z,101250.53
2023-05-22T08:13:58.251Z,101267.88
2023-05-22T08:16:25.092Z,101311.63
2023-05-22T08:18:51.858Z,101302.59
2023-05-22T08:21:18.727Z,101297.59
2023-05-22T08:23:45.503Z,101304.97
2023-05-22T08:26:12.325Z,101306.81
2023-05-22T08:28:43.893Z,101298.88
2023-05-22T08:31:11.743Z,101300.22
2023-05-22T08:33:38.514Z,101296.09
2023-05-22T08:36:05.832Z,101248.94
2023-05-22T08:38:32.613Z,101253.00
2023-05-22T08:40:59.991Z,101288.97
2023-05-22T08:43:28.479Z,101264.97
2023-05-22T08:46:06.182Z,101296.75
2023-05-22T08:48:33.422Z,101288.44
2023-05-22T08:51:05.611Z,101303.16
2023-05-22T08:53:34.415Z,101296.47
2023-05-22T08:56:02.429Z,101241.38
2023-05-22T08:58:29.489Z,101293.03
2023-05-22T09:00:56.372Z,101233.31
2023-05-22T09:03:23.452Z,101154.75
2023-05-22T09:05:50.336Z,101259.84
2023-05-22T09:08:20.959Z,101297.94
2023-05-22T09:10:48.093Z,101262.50
2023-05-22T09:13:28.274Z,101254.50
2023-05-22T09:16:12.238Z,101296.16
2023-05-22T09:18:40.484Z,101283.00
2023-05-22T09:21:21.574Z,101298.22
2023-05-22T09:23:54.596Z,101291.03
2023-05-22T09:26:21.466Z,101279.53
2023-05-22T09:28:48.029Z,101286.81
2023-05-22T09:31:14.956Z,101238.97
2023-05-22T09:33:44.189Z,101278.16
2023-05-22T09:36:11.123Z,101226.09
2023-05-22T09:38:38.273Z,101298.81
2023-05-22T09:41:05.781Z,101289.28
2023-05-22T09:43:33.652Z,101268.31
2023-05-22T09:46:06.241Z,101273.06
2023-05-22T09:48:38.950Z,101281.78
2023-05-22T09:51:07.262Z,101215.00
2023-05-22T09:53:35.051Z,101244.16
2023-05-22T09:56:05.954Z,101280.66
2023-05-22T09:58:35.612Z,101261.38
2023-05-22T10:01:03.181Z,101213.63
2023-05-22T10:03:31.813Z,101238.75
2023-05-22T10:05:58.864Z,101273.84
2023-05-22T10:08:34.406Z,101262.84
2023-05-22T10:11:01.443Z,101208.81
2023-05-22T10:13:29.032Z,101232.78
2023-05-22T10:15:57.118Z,101263.25
2023-05-22T10:18:24.663Z,101257.84
2023-05-22T10:20:51.909Z,101250.38
2023-05-22T10:23:18.829Z,101242.63
2023-05-22T10:25:46.224Z,101263.63
2023-05-22T10:28:19.329Z,101186.06
2023-05-22T10:31:09.838Z,101137.59
2023-05-22T10:34:00.710Z,101209.56
2023-05-22T10:37:00.412Z,101222.53
2023-05-22T10:40:11.849Z,101268.16
2023-05-22T10:42:38.784Z,101255.44
2023-05-22T10:45:09.449Z,101177.53
2023-05-22T10:47:36.801Z,101240.50
2023-05-22T10:50:12.781Z,101254.47
2023-05-22T10:52:40.279Z,101229.13
2023-05-22T10:55:10.873Z,101247.34
2023-05-22T10:57:38.730Z,101248.53
2023-05-22T11:00:09.495Z,101250.28
2023-05-22T11:02:45.041Z,101253.22
2023-05-22T11:05:21.564Z,101244.28
2023-05-22T11:07:49.114Z,101235.53
2023-05-22T11:10:26.076Z,101188.03
2023-05-22T11:13:29.309Z,101233.94
2023-05-22T11:15:57.673Z,101239.94
2023-05-22T11:18:28.310Z,101220.34
2023-05-22T11:20:55.833Z,101194.44
2023-05-22T11:23:25.594Z,101228.00
2023-05-22T11:25:52.246Z,101210.28
2023-05-22T11:28:19.048Z,101161.22
2023-05-22T11:30:45.916Z,101232.16
2023-05-22T11:33:13.063Z,101228.88
2023-05-22T11:35:39.919Z,101219.66
2023-05-22T11:38:07.151Z,101221.63
2023-05-22T11:40:33.974Z,101213.84
2023-05-22T11:43:00.549Z,101176.69
2023-05-22T11:45:27.282Z,101149.88
2023-05-22T11:47:54.185Z,101222.78
2023-05-22T11:50:40.255Z,101168.31
2023-05-22T11:53:08.241Z,101209.31
2023-05-22T11:55:35.003Z,101206.75
2023-05-22T11:58:02.714Z,101212.16
2023-05-22T12:00:31.269Z,101151.00
2023-05-22T12:02:58.411Z,101217.94
2023-05-22T12:05:25.140Z,101187.75
2023-05-22T12:07:51.863Z,101215.44
2023-05-22T12:10:18.722Z,101186.16
2023-05-22T12:12:45.364Z,101206.78
2023-05-22T12:15:12.287Z,101142.78
2023-05-22T12:17:40.063Z,101206.78
2023-05-22T12:20:07.238Z,101142.72
2023-05-22T12:22:33.844Z,101211.78
2023-05-22T12:25:00.479Z,101204.16
2023-05-22T12:27:33.190Z,101170.47
2023-05-22T12:30:09.258Z,101196.63
2023-05-22T12:32:36.605Z,101177.59
2023-05-22T12:35:03.283Z,101175.47
2023-05-22T12:37:31.985Z,101134.50
2023-05-22T12:40:00.658Z,101198.81
2023-05-22T12:42:28.371Z,101143.13
2023-05-22T12:44:57.996Z,101184.91
2023-05-22T12:47:25.213Z,101188.78
2023-05-22T12:49:52.182Z,101188.53
2023-05-22T12:52:18.967Z,101183.34
2023-05-22T12:54:46.080Z,101169.13
2023-05-22T12:57:12.692Z,101182.22
2023-05-22T12:59:39.284Z,101120.53
2023-05-22T13:02:06.210Z,101173.16
2023-05-22T13:04:33.076Z,101177.63
2023-05-22T13:06:59.854Z,101113.69
2023-05-22T13:09:26.585Z,101050.09
2023-05-22T13:11:53.288Z,101161.44
2023-05-22T13:14:19.873Z,101160.56
2023-05-22T13:16:46.544Z,101181.22
2023-05-22T13:19:13.290Z,101165.16
2023-05-22T13:21:39.998Z,101155.03
2023-05-22T13:24:06.653Z,101159.56
2023-05-22T13:26:33.190Z,101158.97
2023-05-22T13:28:59.806Z,101157.00
2023-05-22T13:31:26.443Z,101133.19
2023-05-22T13:33:53.092Z,101154.53
2023-05-22T13:36:19.903Z,101168.94
2023-05-22T13:38:46.594Z,101119.66
2023-05-22T13:41:15.370Z,101161.03
2023-05-22T13:43:42.087Z,101163.41
2023-05-22T13:46:08.748Z,101108.38
2023-05-22T13:48:35.493Z,101174.31
2023-05-22T13:51:03.128Z,101079.19
2023-05-22T13:53:29.692Z,101141.47
2023-05-22T13:55:56.332Z,101149.00
2023-05-22T13:58:22.850Z,101106.19
2023-05-22T14:00:49.453Z,101135.09
2023-05-22T14:03:17.725Z,101127.72
2023-05-22T14:05:45.088Z,101163.06
2023-05-22T14:08:11.718Z,101158.06
2023-05-22T14:10:38.646Z,101161.44
2023-05-22T14:13:05.510Z,101151.66
2023-05-22T14:15:32.158Z,101045.84
2023-05-22T14:17:58.771Z,101160.56
2023-05-22T14:20:25.591Z,101169.47
2023-05-22T14:22:57.881Z,101124.31
2023-05-22T14:25:25.898Z,101169.16
2023-05-22T14:27:52.624Z,101162.16
2023-05-22T14:30:19.347Z,101165.38
2023-05-22T14:32:46.704Z,101164.94
2023-05-22T14:35:13.464Z,101179.25
2023-05-22T14:37:40.104Z,101159.97
2023-05-22T14:40:07.579Z,101100.63
2023-05-22T14:42:35.547Z,101151.63
2023-05-22T14:45:03.817Z,101164.59
2023-05-22T14:47:30.641Z,101123.72
2023-05-22T14:50:06.224Z,101098.31
2023-05-22T14:52:41.202Z,101172.22
2023-05-22T14:55:08.298Z,101171.56
2023-05-22T14:57:34.907Z,101177.88
2023-05-22T15:00:01.649Z,101173.50
2023-05-22T15:02:28.292Z,101176.41
2023-05-22T15:04:54.965Z,101201.63
2023-05-22T15:07:24.328Z,101211.41
2023-05-22T15:09:53.355Z,101214.13
2023-05-22T15:12:21.338Z,101230.69
2023-05-22T15:14:49.135Z,101215.16
2023-05-22T15:17:15.708Z,101163.16
2023-05-22T15:19:43.848Z,101196.47
2023-05-22T15:22:19.392Z,101241.59
2023-05-22T15:25:03.970Z,101247.78
2023-05-22T15:27:30.681Z,101223.84
2023-05-22T15:29:57.742Z,101233.28
2023-05-22T15:32:24.457Z,101227.81
2023-05-22T15:34:51.644Z,101231.69
2023-05-22T15:37:18.550Z,101214.47
2023-05-22T15:39:45.164Z,101169.88
2023-05-22T15:42:11.733Z,101199.41
2023-05-22T15:44:38.306Z,101233.63
2023-05-22T15:47:05.066Z,101221.88
2023-05-22T15:49:31.711Z,101223.50
2023-05-22T15:51:58.652Z,101163.47
2023-05-22T15:54:25.296Z,101247.81
2023-05-22T15:56:52.008Z,101235.97
2023-05-22T15:59:18.561Z,101221.34
2023-05-22T16:01:45.294Z,101165.25
2023-05-22T16:04:12.078Z,101225.69
2023-05-22T16:06:38.639Z,101229.91
2023-05-22T16:09:06.046Z,101230.41
2023-05-22T16:11:33.360Z,101198.16
2023-05-22T16:13:59.927Z,101228.13
2023-05-22T16:16:26.560Z,101228.81
2023-05-22T16:18:53.159Z,101226.22
2023-05-22T16:21:19.712Z,101206.72
2023-05-22T16:23:46.366Z,101226.75
2023-05-22T16:26:13.030Z,101163.44
2023-05-22T16:28:39.646Z,101226.06
2023-05-22T16:31:06.366Z,101235.22
2023-05-22T16:33:34.407Z,101212.38
2023-05-22T16:36:01.044Z,101165.22
2023-05-22T16:38:27.968Z,101233.50
2023-05-22T16:40:55.114Z,101223.47
2023-05-22T16:43:21.685Z,101236.72
2023-05-22T16:45:51.011Z,101237.91
2023-05-22T16:48:18.170Z,101224.44
2023-05-22T16:50:46.617Z,101244.31
2023-05-22T16:53:13.957Z,101245.06
2023-05-22T16:55:40.819Z,101248.00
2023-05-22T16:58:09.102Z,101186.16
2023-05-22T17:00:36.418Z,101184.44
2023-05-22T17:03:03.358Z,101274.50
2023-05-22T17:05:30.310Z,101273.06
2023-05-22T17:07:56.874Z,101267.00
2023-05-22T17:10:23.506Z,101267.38
2023-05-22T17:12:50.262Z,101257.25
2023-05-22T17:15:16.858Z,101209.91
2023-05-22T17:17:43.473Z,101272.56
2023-05-22T17:20:10.378Z,101212.25
2023-05-22T17:22:38.492Z,101248.25
2023-05-22T17:25:06.188Z,101219.25
2023-05-22T17:27:36.231Z,101250.59
2023-05-22T17:30:04.820Z,101279.66
2023-05-22T17:32:31.573Z,101262.22
2023-05-22T17:34:58.701Z,101285.53
2023-05-22T17:37:25.339Z,101279.50
2023-05-22T17:39:51.992Z,101282.72
2023-05-22T17:42:18.616Z,101303.44
2023-05-22T17:44:45.387Z,101286.06
2023-05-22T17:47:13.366Z,101303.63
2023-05-22T17:49:39.998Z,101306.59
2023-05-22T17:52:08.461Z,101311.53
2023-05-22T17:54:35.831Z,101230.19
2023-05-22T17:57:05.859Z,101298.84
2023-05-22T17:59:32.762Z,101311.81
2023-05-22T18:01:59.469Z,101306.25
2023-05-22T18:04:26.234Z,101318.38
2023-05-22T18:06:52.823Z,101301.78
2023-05-22T18:09:19.443Z,101330.94
2023-05-22T18:11:46.067Z,101325.81
2023-05-22T18:14:12.726Z,101334.00
2023-05-22T18:16:39.409Z,101322.75
2023-05-22T18:19:06.078Z,101332.41
2023-05-22T18:21:32.741Z,101336.84
2023-05-22T18:23:59.306Z,101335.59
2023-05-22T18:26:26.809Z,101334.66
2023-05-22T18:28:53.405Z,101320.88
2023-05-22T18:31:20.363Z,101359.94
2023-05-22T18:33:47.204Z,101335.91
2023-05-22T18:36:13.943Z,101338.81
2023-05-22T18:38:41.012Z,101350.97
2023-05-22T18:41:07.800Z,101237.50
2023-05-22T18:43:34.362Z,101338.97
2023-05-22T18:46:01.180Z,101354.22
2023-05-22T18:48:28.285Z,101337.88
2023-05-22T18:50:57.380Z,101367.34
2023-05-22T18:53:25.349Z,101370.69
2023-05-22T18:55:53.574Z,101389.97
2023-05-22T18:58:20.163Z,101291.38
2023-05-22T19:00:46.835Z,101365.84
2023-05-22T19:03:13.968Z,101373.47
2023-05-22T19:05:41.383Z,101370.25
2023-05-22T19:08:07.997Z,101298.47
2023-05-22T19:10:34.596Z,101387.75
2023-05-22T19:13:01.219Z,101388.03
2023-05-22T19:15:27.843Z,101371.31
2023-05-22T19:17:54.461Z,101317.19
2023-05-22T19:20:23.628Z,101362.75
2023-05-22T19:22:51.347Z,101374.56
2023-05-22T19:25:18.318Z,101336.44
2023-05-22T19:27:45.473Z,101406.91
2023-05-22T19:30:15.034Z,101376.66
2023-05-22T19:32:43.387Z,101345.63
2023-05-22T19:35:11.011Z,101400.13
2023-05-22T19:37:38.058Z,101404.63
2023-05-22T19:40:05.898Z,101399.41
2023-05-22T19:42:32.658Z,101409.22
2023-05-22T19:44:59.436Z,101415.59
2023-05-22T19:47:26.047Z,101404.09
2023-05-22T19:49:52.784Z,101385.38
2023-05-22T19:52:19.393Z,101422.09
2023-05-22T19:54:46.229Z,101258.91
2023-05-22T19:57:12.896Z,101428.41
2023-05-22T19:59:39.527Z,101440.09
2023-05-22T20:02:07.089Z,101428.53
2023-05-22T20:04:34.298Z,101422.38
2023-05-22T20:07:02.091Z,101362.66
2023-05-22T20:09:28.758Z,101442.09
2023-05-22T20:11:55.359Z,101368.97
2023-05-22T20:14:21.948Z,101436.00
2023-05-22T20:16:48.756Z,101451.22
2023-05-22T20:19:15.422Z,101379.84
2023-05-22T20:21:42.070Z,101457.50
2023-05-22T20:24:20.696Z,101470.94
2023-05-22T20:26:47.653Z,101459.34
2023-05-22T20:29:14.435Z,101467.41
2023-05-22T20:31:41.117Z,101473.66
2023-05-22T20:34:09.553Z,101476.41
2023-05-22T20:36:36.403Z,101483.56
2023-05-22T20:39:03.584Z,101474.66
2023-05-22T20:41:30.174Z,101387.97
2023-05-22T20:43:58.487Z,101495.22
2023-05-22T20:46:26.547Z,101471.09
2023-05-22T20:48:53.819Z,101499.72
2023-05-22T20:51:20.879Z,101395.13
2023-05-22T20:53:52.427Z,101494.34
2023-05-22T20:56:19.274Z,101523.84
2023-05-22T20:58:46.068Z,101442.44
2023-05-22T21:01:12.676Z,101505.00
2023-05-22T21:03:39.252Z,101529.16
2023-05-22T21:06:06.250Z,101480.84
2023-05-22T21:08:32.879Z,101523.75
2023-05-22T21:10:59.928Z,101522.88
2023-05-22T21:13:26.489Z,101531.81
2023-05-22T21:15:53.112Z,101532.69
2023-05-22T21:18:19.938Z,101517.50
2023-05-22T21:20:46.665Z,101451.34
2023-05-22T21:23:13.492Z,101512.16
2023-05-22T21:25:40.217Z,101539.03
2023-05-22T21:28:07.823Z,101508.66
2023-05-22T21:30:34.503Z,101531.88
2023-05-22T21:33:01.263Z,101449.66
2023-05-22T21:35:27.898Z,101522.94
2023-05-22T21:37:54.453Z,101535.47
2023-05-22T21:40:21.024Z,101531.88
2023-05-22T21:42:47.679Z,101521.16
2023-05-22T21:45:14.413Z,101522.03
2023-05-22T21:47:41.153Z,101531.81
2023-05-22T21:50:08.157Z,101513.03
2023-05-22T21:52:34.762Z,101540.72
2023-05-22T21:55:02.317Z,101535.34
2023-05-22T21:57:28.906Z,101501.38
2023-05-22T21:59:55.500Z,101539.84
2023-05-22T22:02:22.150Z,101547.88
2023-05-22T22:04:48.768Z,101529.09
2023-05-22T22:07:15.481Z,101538.03
2023-05-22T22:09:42.074Z,101552.31
2023-05-22T22:12:08.844Z,101534.47
2023-05-22T22:14:35.433Z,101538.06
2023-05-22T22:17:02.063Z,101559.59
2023-05-22T22:19:28.908Z,101548.88
2023-05-22T22:21:55.595Z,101529.22
2023-05-22T22:24:22.203Z,101567.66
2023-05-22T22:26:49.299Z,101530.09
2023-05-22T22:29:16.207Z,101550.66
2023-05-22T22:31:42.865Z,101568.53
2023-05-22T22:34:09.590Z,101467.47
2023-05-22T22:36:36.173Z,101575.66
2023-05-22T22:39:02.913Z,101418.25
2023-05-22T22:41:30.420Z,101588.16
2023-05-22T22:43:57.055Z,101574.72
2023-05-22T22:46:23.762Z,101571.13
2023-05-22T22:48:51.151Z,101586.31
2023-05-22T22:51:18.540Z,101589.88
2023-05-22T22:53:45.130Z,101570.19
2023-05-22T22:56:11.769Z,101539.81
2023-05-22T22:58:38.842Z,101577.41
2023-05-22T23:01:05.548Z,101585.47
2023-05-22T23:03:32.205Z,101568.44
2023-05-22T23:05:58.748Z,101504.03
2023-05-22T23:08:25.905Z,101581.84
2023-05-22T23:10:52.491Z,101569.31
2023-05-22T23:13:19.099Z,101586.31
2023-05-22T23:15:45.768Z,101507.59
2023-05-22T23:18:13.881Z,101602.41
2023-05-22T23:20:40.599Z,101516.53
2023-05-22T23:23:07.183Z,101604.25
2023-05-22T23:25:33.822Z,101584.53
2023-05-22T23:28:00.684Z,101585.44
2023-05-22T23:30:27.497Z,101581.84
2023-05-22T23:32:54.096Z,101561.25
2023-05-22T23:35:20.810Z,101572.00
2023-05-22T23:37:47.755Z,101544.28
2023-05-22T23:40:14.387Z,101568.41
2023-05-22T23:42:41.251Z,101588.09
2023-05-22T23:45:08.142Z,101563.06
2023-05-22T23:47:34.710Z,101575.59
2023-05-22T23:50:01.280Z,101591.69
2023-05-22T23:52:27.933Z,101593.47
2023-05-22T23:54:54.472Z,101582.75
2023-05-22T23:57:21.250Z,101576.44
2023-05-22T23:59:47.872Z,101592.56
